Time;durP1;ratioP1;P1;durP2;ratioP2;P2;SDS_P1;SDS_P2;PMS_P1;PMS_P2;Temp;Humidity;BMP_temperature;BMP_pressure;BME280_temperature;BME280_humidity;BME280_pressure;Samples;Min_cycle;Max_cycle;Signal;HPM_P1;HPM_P2
2023/07/27 00:01:49;;;;;;;1.20;1.20;;;;;;;;;;4997142;28;20230;-72
2023/07/27 00:04:18;;;;;;;1.23;1.20;;;;;;;;;;4997065;28;20218;-71
2023/07/27 00:06:46;;;;;;;1.58;1.27;;;;;;;;;;4997038;28;20199;-72
2023/07/27 00:09:14;;;;;;;1.40;1.40;;;;;;;;;;4996631;28;20635;-72
2023/07/27 00:11:41;;;;;;;1.35;1.33;;;;;;;;;;4996662;28;20728;-72
2023/07/27 00:14:08;;;;;;;1.35;1.35;;;;;;;;;;4997025;28;20199;-72
2023/07/27 00:16:35;;;;;;;1.27;1.27;;;;;;;;;;4996843;28;20675;-74
2023/07/27 00:19:02;;;;;;;1.10;1.10;;;;;;;;;;4996751;28;20713;-73
2023/07/27 00:21:29;;;;;;;1.20;1.20;;;;;;;;;;4996567;28;20218;-71
2023/07/27 00:23:57;;;;;;;1.17;1.17;;;;;;;;;;4996725;28;20210;-72
2023/07/27 00:26:24;;;;;;;1.17;1.17;;;;;;;;;;4996682;28;20199;-73
2023/07/27 00:28:51;;;;;;;1.40;1.40;;;;;;;;;;4996579;28;20223;-73
2023/07/27 00:31:18;;;;;;;1.08;1.08;;;;;;;;;;4996601;28;20199;-72
2023/07/27 00:33:45;;;;;;;1.15;1.15;;;;;;;;;;4996556;28;20206;-72
2023/07/27 00:36:12;;;;;;;1.10;1.10;;;;;;;;;;4995935;28;20234;-72
2023/07/27 00:38:39;;;;;;;0.95;0.95;;;;;;;;;;4996465;28;20226;-72
2023/07/27 00:41:08;;;;;;;1.48;1.40;;;;;;;;;;4996074;28;20248;-72
2023/07/27 00:43:35;;;;;;;1.20;1.20;;;;;;;;;;4996444;28;20199;-72
2023/07/27 00:46:02;;;;;;;1.05;1.05;;;;;;;;;;4996330;28;20203;-72
2023/07/27 00:48:29;;;;;;;1.20;1.20;;;;;;;;;;4996279;28;20234;-72
2023/07/27 00:50:57;;;;;;;1.50;1.40;;;;;;;;;;4996472;28;20195;-72
2023/07/27 00:53:24;;;;;;;1.40;1.40;;;;;;;;;;4996352;28;20199;-73
2023/07/27 00:55:51;;;;;;;1.33;1.33;;;;;;;;;;4996237;28;20207;-72
2023/07/27 00:58:20;;;;;;;1.25;1.20;;;;;;;;;;4995883;28;20238;-72
2023/07/27 01:00:47;;;;;;;1.30;1.30;;;;;;;;;;4996012;28;20222;-72
2023/07/27 01:03:14;;;;;;;1.17;1.17;;;;;;;;;;4996056;28;20306;-72
2023/07/27 01:05:41;;;;;;;1.00;1.00;;;;;;;;;;4995911;28;20211;-71
2023/07/27 01:08:08;;;;;;;1.55;1.55;;;;;;;;;;4996010;28;20230;-71
2023/07/27 01:10:55;;;;;;;1.15;1.15;;;;;;;;;;4995856;28;20195;-72
2023/07/27 01:13:26;;;;;;;1.35;1.35;;;;;;;;;;4995884;28;20242;-72
2023/07/27 01:15:58;;;;;;;1.35;1.35;;;;;;;;;;4995828;28;20190;-72
2023/07/27 01:18:28;;;;;;;1.13;1.13;;;;;;;;;;4995450;28;20233;-72
2023/07/27 01:21:00;;;;;;;1.30;1.30;;;;;;;;;;4995723;28;20223;-72
2023/07/27 01:23:47;;;;;;;1.33;1.33;;;;;;;;;;4995716;28;20187;-72
2023/07/27 01:26:26;;;;;;;1.42;1.42;;;;;;;;;;4995707;28;20206;-72
2023/07/27 01:29:07;;;;;;;1.10;1.10;;;;;;;;;;4995744;28;20215;-72
2023/07/27 01:31:41;;;;;;;1.40;1.40;;;;;;;;;;4996453;28;20229;-72
2023/07/27 01:34:12;;;;;;;1.25;1.25;;;;;;;;;;4996179;28;20197;-72
2023/07/27 01:36:39;;;;;;;1.58;1.48;;;;;;;;;;4995710;28;20191;-72
2023/07/27 01:39:07;;;;;;;1.58;1.58;;;;;;;;;;4995068;28;20226;-72
2023/07/27 01:41:36;;;;;;;1.38;1.38;;;;;;;;;;4995302;28;20222;-72
2023/07/27 01:44:03;;;;;;;1.38;1.38;;;;;;;;;;4995248;28;20202;-72
2023/07/27 01:46:30;;;;;;;1.23;1.23;;;;;;;;;;4994506;28;20765;-72
2023/07/27 01:49:00;;;;;;;1.55;1.55;;;;;;;;;;4994714;28;20230;-72
2023/07/27 01:51:28;;;;;;;1.40;1.40;;;;;;;;;;4995128;28;20203;-72
2023/07/27 01:53:55;;;;;;;1.58;1.55;;;;;;;;;;4995180;28;20211;-72
2023/07/27 01:56:23;;;;;;;1.83;1.77;;;;;;;;;;4995132;28;20202;-73
2023/07/27 01:58:51;;;;;;;1.65;1.55;;;;;;;;;;4994798;28;20729;-73
2023/07/27 02:01:19;;;;;;;1.25;1.20;;;;;;;;;;4994958;28;20237;-73
2023/07/27 02:03:46;;;;;;;1.60;1.50;;;;;;;;;;4994933;28;20198;-73
2023/07/27 02:06:15;;;;;;;1.63;1.63;;;;;;;;;;4994787;28;20210;-73
2023/07/27 02:08:42;;;;;;;1.80;1.70;;;;;;;;;;4994818;28;20254;-73
2023/07/27 02:11:11;;;;;;;1.80;1.70;;;;;;;;;;4994553;28;20606;-73
2023/07/27 02:13:40;;;;;;;1.10;1.10;;;;;;;;;;4995002;28;20203;-72
2023/07/27 02:16:10;;;;;;;1.52;1.52;;;;;;;;;;4994747;28;20214;-72
2023/07/27 02:18:38;;;;;;;1.20;1.20;;;;;;;;;;4994459;28;20230;-73
2023/07/27 02:21:05;;;;;;;1.42;1.42;;;;;;;;;;4994275;28;20716;-73
2023/07/27 02:23:35;;;;;;;1.60;1.60;;;;;;;;;;4994288;28;20697;-73
2023/07/27 02:26:02;;;;;;;1.20;1.20;;;;;;;;;;4994498;28;20199;-73
2023/07/27 02:28:29;;;;;;;1.60;1.60;;;;;;;;;;4994481;28;20230;-73
2023/07/27 02:30:56;;;;;;;1.55;1.55;;;;;;;;;;4994463;28;20210;-73
2023/07/27 02:33:23;;;;;;;1.50;1.50;;;;;;;;;;4994711;28;20212;-73
2023/07/27 02:35:51;;;;;;;1.40;1.30;;;;;;;;;;4994438;28;20210;-73
2023/07/27 02:38:18;;;;;;;1.40;1.40;;;;;;;;;;4994005;28;20590;-73
2023/07/27 02:40:46;;;;;;;1.38;1.38;;;;;;;;;;4993920;28;20611;-73
2023/07/27 02:43:13;;;;;;;1.50;1.50;;;;;;;;;;4994013;28;20551;-73
2023/07/27 02:45:40;;;;;;;1.60;1.60;;;;;;;;;;4994008;28;20686;-73
2023/07/27 02:48:07;;;;;;;1.80;1.20;;;;;;;;;;4994479;28;20222;-73
2023/07/27 02:50:34;;;;;;;1.50;1.50;;;;;;;;;;4994444;28;20207;-73
2023/07/27 02:53:01;;;;;;;1.15;1.15;;;;;;;;;;4994189;28;20199;-73
2023/07/27 02:55:28;;;;;;;1.42;1.33;;;;;;;;;;4993874;28;20206;-73
2023/07/27 02:57:57;;;;;;;1.23;1.23;;;;;;;;;;4994584;28;20234;-74
2023/07/27 03:00:24;;;;;;;1.30;1.30;;;;;;;;;;5000642;28;20567;-73
2023/07/27 03:02:51;;;;;;;1.38;1.38;;;;;;;;;;5000725;28;20226;-73
2023/07/27 03:05:18;;;;;;;1.27;1.20;;;;;;;;;;5000764;28;20210;-72
2023/07/27 03:07:45;;;;;;;1.48;1.48;;;;;;;;;;5000729;28;20225;-73
2023/07/27 03:10:12;;;;;;;1.20;1.20;;;;;;;;;;5000744;28;20209;-73
2023/07/27 03:12:39;;;;;;;1.65;1.55;;;;;;;;;;5000593;28;20281;-73
2023/07/27 03:15:08;;;;;;;1.63;1.48;;;;;;;;;;5000271;28;20209;-73
2023/07/27 03:17:35;;;;;;;1.10;1.10;;;;;;;;;;5000518;28;20230;-73
2023/07/27 03:20:02;;;;;;;1.30;1.30;;;;;;;;;;5000528;28;20206;-72
2023/07/27 03:22:29;;;;;;;1.20;1.20;;;;;;;;;;5000428;28;20588;-72
2023/07/27 03:24:56;;;;;;;1.92;1.83;;;;;;;;;;5000501;28;20210;-72
2023/07/27 03:27:23;;;;;;;1.33;1.33;;;;;;;;;;5000353;28;20222;-72
2023/07/27 03:29:50;;;;;;;1.42;1.42;;;;;;;;;;5000414;28;20612;-72
2023/07/27 03:32:18;;;;;;;1.42;1.33;;;;;;;;;;5000098;28;20202;-72
2023/07/27 03:34:46;;;;;;;1.40;1.40;;;;;;;;;;5000395;28;20209;-72
2023/07/27 03:37:13;;;;;;;1.58;1.58;;;;;;;;;;5000344;28;20250;-73
2023/07/27 03:39:40;;;;;;;1.80;1.70;;;;;;;;;;5001751;28;20202;-73
2023/07/27 03:42:07;;;;;;;1.30;1.30;;;;;;;;;;5000212;28;20222;-73
2023/07/27 03:44:34;;;;;;;1.30;1.30;;;;;;;;;;5000252;28;20203;-74
2023/07/27 03:47:01;;;;;;;1.77;1.67;;;;;;;;;;5000225;28;20202;-74
2023/07/27 03:49:30;;;;;;;1.40;1.40;;;;;;;;;;5000251;28;20209;-74
2023/07/27 03:51:57;;;;;;;1.67;1.67;;;;;;;;;;5001331;28;20199;-73
2023/07/27 03:54:24;;;;;;;1.67;1.58;;;;;;;;;;5000492;28;20198;-74
2023/07/27 03:56:51;;;;;;;1.52;1.52;;;;;;;;;;5001111;28;20206;-74
2023/07/27 03:59:18;;;;;;;1.48;1.48;;;;;;;;;;5000177;28;20214;-73
2023/07/27 04:01:45;;;;;;;1.85;1.75;;;;;;;;;;5000041;28;20226;-73
2023/07/27 04:04:12;;;;;;;1.30;1.30;;;;;;;;;;5000347;28;20202;-74
2023/07/27 04:06:41;;;;;;;1.20;1.20;;;;;;;;;;5000167;28;20229;-72
2023/07/27 04:09:09;;;;;;;1.52;1.52;;;;;;;;;;4999952;28;20277;-73
2023/07/27 04:11:36;;;;;;;1.50;1.50;;;;;;;;;;4995756;28;20700;-73
2023/07/27 04:14:03;;;;;;;2.45;1.50;;;;;;;;;;4996642;28;20599;-73
2023/07/27 04:16:30;;;;;;;1.40;1.40;;;;;;;;;;4996953;28;20586;-73
2023/07/27 04:18:57;;;;;;;1.40;1.38;;;;;;;;;;4996828;28;20222;-74
2023/07/27 04:21:24;;;;;;;1.33;1.33;;;;;;;;;;4996749;28;20273;-74
2023/07/27 04:23:52;;;;;;;1.42;1.42;;;;;;;;;;4996884;28;20234;-74
2023/07/27 04:26:19;;;;;;;1.40;1.40;;;;;;;;;;4997013;28;20214;-74
2023/07/27 04:28:46;;;;;;;1.60;1.60;;;;;;;;;;4996543;28;20587;-73
2023/07/27 04:31:13;;;;;;;1.80;1.77;;;;;;;;;;4996262;28;20210;-73
2023/07/27 04:33:40;;;;;;;1.50;1.50;;;;;;;;;;4996699;28;20207;-74
2023/07/27 04:36:07;;;;;;;1.52;1.48;;;;;;;;;;4996565;28;20212;-73
2023/07/27 04:38:35;;;;;;;1.48;1.48;;;;;;;;;;4996436;28;20602;-71
2023/07/27 04:41:03;;;;;;;1.45;1.45;;;;;;;;;;4996477;28;20199;-71
2023/07/27 04:43:30;;;;;;;1.65;1.65;;;;;;;;;;4996411;28;20227;-70
2023/07/27 04:45:57;;;;;;;1.73;1.70;;;;;;;;;;4996465;28;20202;-70
2023/07/27 04:48:24;;;;;;;1.67;1.67;;;;;;;;;;4996336;28;20233;-72
2023/07/27 04:50:51;;;;;;;1.50;1.50;;;;;;;;;;4995948;28;20575;-71
2023/07/27 04:53:18;;;;;;;1.70;1.70;;;;;;;;;;4996225;28;20205;-71
2023/07/27 04:55:45;;;;;;;1.95;1.85;;;;;;;;;;4996179;28;20202;-70
2023/07/27 04:58:13;;;;;;;1.83;1.73;;;;;;;;;;4995385;28;20242;-71
2023/07/27 05:00:40;;;;;;;1.58;1.58;;;;;;;;;;4995146;28;20207;-70
2023/07/27 05:03:08;;;;;;;2.10;2.00;;;;;;;;;;4995022;28;20215;-69
2023/07/27 05:05:35;;;;;;;1.92;1.83;;;;;;;;;;4995142;28;20203;-68
2023/07/27 05:08:02;;;;;;;1.92;1.83;;;;;;;;;;4995143;28;20607;-69
2023/07/27 05:10:29;;;;;;;1.88;1.77;;;;;;;;;;4995630;28;20209;-70
2023/07/27 05:12:56;;;;;;;2.03;1.92;;;;;;;;;;4995202;28;20195;-70
2023/07/27 05:15:24;;;;;;;1.60;1.60;;;;;;;;;;4995178;28;20206;-70
2023/07/27 05:17:51;;;;;;;1.48;1.48;;;;;;;;;;4994885;28;20227;-70
2023/07/27 05:20:18;;;;;;;1.67;1.67;;;;;;;;;;4994891;28;20213;-70
2023/07/27 05:22:45;;;;;;;1.20;1.20;;;;;;;;;;4994635;28;20370;-70
2023/07/27 05:25:13;;;;;;;1.52;1.52;;;;;;;;;;4994786;28;20214;-70
2023/07/27 05:27:40;;;;;;;1.38;1.38;;;;;;;;;;4994621;28;20223;-70
2023/07/27 05:30:08;;;;;;;1.63;1.63;;;;;;;;;;4994705;28;20203;-70
2023/07/27 05:32:36;;;;;;;1.83;1.73;;;;;;;;;;4994629;28;20202;-70
2023/07/27 05:35:04;;;;;;;1.48;1.48;;;;;;;;;;4994752;28;20210;-70
2023/07/27 05:37:32;;;;;;;1.50;1.50;;;;;;;;;;4994563;28;20234;-70
2023/07/27 05:39:59;;;;;;;2.13;2.00;;;;;;;;;;4994586;28;20202;-70
2023/07/27 05:42:26;;;;;;;1.50;1.50;;;;;;;;;;4994531;28;20245;-70
2023/07/27 05:44:53;;;;;;;1.60;1.60;;;;;;;;;;4994912;28;20209;-70
2023/07/27 05:47:20;;;;;;;1.58;1.48;;;;;;;;;;4994350;28;20223;-70
2023/07/27 05:49:48;;;;;;;1.60;1.50;;;;;;;;;;4994376;28;20206;-70
2023/07/27 05:52:15;;;;;;;1.90;1.85;;;;;;;;;;4994533;28;20206;-71
2023/07/27 05:54:42;;;;;;;1.80;1.70;;;;;;;;;;4994314;28;20226;-70
2023/07/27 05:57:12;;;;;;;1.63;1.60;;;;;;;;;;4958784;28;1036566;-70
2023/07/27 05:59:39;;;;;;;1.63;1.52;;;;;;;;;;4994741;28;20226;-70
2023/07/27 06:02:07;;;;;;;1.52;1.52;;;;;;;;;;4994875;28;20209;-70
2023/07/27 06:04:34;;;;;;;2.00;1.90;;;;;;;;;;4994780;28;20209;-70
2023/07/27 06:07:05;;;;;;;2.03;1.92;;;;;;;;;;4994714;28;20203;-70
2023/07/27 06:09:32;;;;;;;1.70;1.70;;;;;;;;;;4994858;28;20218;-70
2023/07/27 06:11:59;;;;;;;2.10;2.00;;;;;;;;;;4994705;28;20210;-70
2023/07/27 06:14:26;;;;;;;1.70;1.70;;;;;;;;;;4994737;28;20206;-70
2023/07/27 06:16:53;;;;;;;2.00;1.90;;;;;;;;;;4994580;28;20211;-70
2023/07/27 06:19:20;;;;;;;2.10;2.00;;;;;;;;;;4994594;28;20218;-70
2023/07/27 06:21:47;;;;;;;1.63;1.60;;;;;;;;;;4994559;28;20206;-70
2023/07/27 06:24:15;;;;;;;2.13;2.03;;;;;;;;;;4994143;28;20214;-70
2023/07/27 06:26:42;;;;;;;1.95;1.85;;;;;;;;;;4994465;28;20206;-70
2023/07/27 06:29:10;;;;;;;6.38;1.70;;;;;;;;;;4994316;28;20227;-70
2023/07/27 06:31:37;;;;;;;2.00;1.90;;;;;;;;;;4994434;28;20230;-70
2023/07/27 06:34:04;;;;;;;2.10;2.00;;;;;;;;;;4994079;28;20198;-70
2023/07/27 06:36:31;;;;;;;1.73;1.73;;;;;;;;;;4994363;28;20202;-70
2023/07/27 06:38:58;;;;;;;1.77;1.67;;;;;;;;;;4994210;28;20706;-70
2023/07/27 06:41:26;;;;;;;2.00;1.90;;;;;;;;;;4995705;28;20210;-70
2023/07/27 06:43:54;;;;;;;2.58;2.08;;;;;;;;;;4994758;28;20774;-70
2023/07/27 06:46:21;;;;;;;2.13;1.73;;;;;;;;;;4993909;28;20232;-70
2023/07/27 06:48:48;;;;;;;1.70;1.70;;;;;;;;;;4993801;28;20226;-70
2023/07/27 06:51:15;;;;;;;2.35;1.70;;;;;;;;;;4994178;28;20206;-70
2023/07/27 06:53:43;;;;;;;2.00;1.90;;;;;;;;;;4994463;28;20240;-70
2023/07/27 06:56:10;;;;;;;2.20;2.10;;;;;;;;;;4994975;28;20199;-70
2023/07/27 06:58:39;;;;;;;2.70;2.08;;;;;;;;;;4994719;28;20230;-70
2023/07/27 07:01:07;;;;;;;2.10;2.00;;;;;;;;;;4994944;28;20229;-70
2023/07/27 07:03:34;;;;;;;2.20;2.05;;;;;;;;;;4995314;28;20257;-70
2023/07/27 07:06:01;;;;;;;3.58;2.85;;;;;;;;;;4996013;28;20707;-69
2023/07/27 07:08:29;;;;;;;2.35;2.20;;;;;;;;;;4994978;28;20222;-70
2023/07/27 07:10:56;;;;;;;2.70;2.60;;;;;;;;;;4995795;28;20203;-70
2023/07/27 07:13:24;;;;;;;1.92;1.83;;;;;;;;;;4995007;28;20195;-70
2023/07/27 07:15:53;;;;;;;2.50;2.30;;;;;;;;;;4995152;28;20202;-70
2023/07/27 07:18:20;;;;;;;2.33;2.22;;;;;;;;;;4995013;28;20246;-70
2023/07/27 07:20:47;;;;;;;1.83;1.83;;;;;;;;;;4994028;28;20211;-70
2023/07/27 07:23:14;;;;;;;1.85;1.75;;;;;;;;;;4993767;28;20573;-69
2023/07/27 07:25:41;;;;;;;1.75;1.65;;;;;;;;;;4993826;28;20202;-69
2023/07/27 07:28:08;;;;;;;2.30;2.20;;;;;;;;;;4993713;28;20223;-69
2023/07/27 07:30:38;;;;;;;1.70;1.70;;;;;;;;;;4994425;28;20218;-70
2023/07/27 07:33:06;;;;;;;1.73;1.73;;;;;;;;;;4993440;28;20697;-69
2023/07/27 07:35:38;;;;;;;1.90;1.90;;;;;;;;;;4993724;28;20209;-70
2023/07/27 07:38:05;;;;;;;1.67;1.58;;;;;;;;;;4994373;28;20258;-69
2023/07/27 07:40:32;;;;;;;1.40;1.38;;;;;;;;;;4993806;28;20214;-69
2023/07/27 07:42:59;;;;;;;1.40;1.40;;;;;;;;;;4993627;28;20238;-69
2023/07/27 07:45:26;;;;;;;1.42;1.42;;;;;;;;;;4994535;28;20203;-70
2023/07/27 07:47:53;;;;;;;1.80;1.70;;;;;;;;;;4997291;28;20254;-70
2023/07/27 07:50:22;;;;;;;1.50;1.50;;;;;;;;;;4997429;28;20207;-70
2023/07/27 07:52:49;;;;;;;1.50;1.50;;;;;;;;;;4997329;28;20198;-70
2023/07/27 07:55:18;;;;;;;1.20;1.10;;;;;;;;;;4997361;28;20206;-70
2023/07/27 07:57:45;;;;;;;1.08;1.08;;;;;;;;;;4997031;28;20230;-69
2023/07/27 08:00:14;;;;;;;1.20;1.20;;;;;;;;;;4997370;28;20207;-69
2023/07/27 08:02:41;;;;;;;1.40;1.40;;;;;;;;;;4997152;28;20199;-69
2023/07/27 08:05:09;;;;;;;1.40;1.30;;;;;;;;;;4997147;28;20229;-69
2023/07/27 08:07:37;;;;;;;1.67;1.60;;;;;;;;;;4997193;28;20609;-69
2023/07/27 08:10:05;;;;;;;1.65;1.55;;;;;;;;;;4997170;28;20202;-69
2023/07/27 08:12:32;;;;;;;1.25;1.25;;;;;;;;;;4997160;28;20207;-69
2023/07/27 08:14:59;;;;;;;2.67;1.30;;;;;;;;;;4997197;28;20203;-69
2023/07/27 08:17:29;;;;;;;1.60;1.50;;;;;;;;;;4997343;28;20257;-70
2023/07/27 08:19:56;;;;;;;1.73;1.63;;;;;;;;;;4997689;28;20194;-71
2023/07/27 08:22:23;;;;;;;1.17;1.17;;;;;;;;;;4997038;28;20570;-71
2023/07/27 08:24:54;;;;;;;1.60;1.50;;;;;;;;;;4996887;28;20218;-71
2023/07/27 08:27:21;;;;;;;1.88;1.20;;;;;;;;;;4996789;28;20306;-72
2023/07/27 08:29:48;;;;;;;1.60;1.50;;;;;;;;;;4996840;28;20207;-72
2023/07/27 08:32:15;;;;;;;1.30;1.30;;;;;;;;;;4996848;28;20209;-72
2023/07/27 08:34:42;;;;;;;1.48;1.38;;;;;;;;;;4996630;28;20206;-72
2023/07/27 08:37:09;;;;;;;1.83;1.60;;;;;;;;;;4996663;28;20574;-72
2023/07/27 08:39:36;;;;;;;1.80;1.70;;;;;;;;;;4996936;28;20202;-72
2023/07/27 08:42:05;;;;;;;1.30;1.30;;;;;;;;;;4997413;28;20245;-72
2023/07/27 08:44:33;;;;;;;1.55;1.38;;;;;;;;;;4998110;28;20226;-72
2023/07/27 08:47:02;;;;;;;1.38;1.38;;;;;;;;;;4999332;28;20210;-71
2023/07/27 08:49:30;;;;;;;1.10;1.10;;;;;;;;;;4997715;28;20261;-72
2023/07/27 08:51:57;;;;;;;1.10;1.10;;;;;;;;;;4997021;28;20206;-72
2023/07/27 08:54:24;;;;;;;1.20;1.20;;;;;;;;;;4996346;28;20202;-72
2023/07/27 08:56:52;;;;;;;1.30;1.30;;;;;;;;;;4995704;28;20214;-71
2023/07/27 08:59:20;;;;;;;1.20;1.20;;;;;;;;;;4996167;28;20312;-71
2023/07/27 09:01:47;;;;;;;2.58;1.50;;;;;;;;;;4996101;28;20654;-72
2023/07/27 09:04:14;;;;;;;1.42;1.40;;;;;;;;;;4995978;28;20340;-71
2023/07/27 09:06:43;;;;;;;1.35;1.35;;;;;;;;;;4995781;28;20583;-71
2023/07/27 09:09:14;;;;;;;1.20;1.20;;;;;;;;;;4995956;28;20218;-71
2023/07/27 09:11:42;;;;;;;1.30;1.30;;;;;;;;;;4995693;28;20569;-71
2023/07/27 09:14:09;;;;;;;1.10;1.10;;;;;;;;;;4996063;28;20202;-71
2023/07/27 09:16:38;;;;;;;1.00;1.00;;;;;;;;;;4995860;28;20210;-71
2023/07/27 09:19:06;;;;;;;1.50;1.40;;;;;;;;;;4995385;28;20249;-71
2023/07/27 09:21:39;;;;;;;1.17;1.17;;;;;;;;;;4995781;28;20230;-71
2023/07/27 09:24:09;;;;;;;1.25;1.25;;;;;;;;;;4995565;28;20210;-71
2023/07/27 09:26:36;;;;;;;1.30;1.20;;;;;;;;;;4995713;28;20183;-72
2023/07/27 09:29:04;;;;;;;1.20;1.08;;;;;;;;;;4995524;28;20585;-72
2023/07/27 09:31:33;;;;;;;1.40;1.40;;;;;;;;;;4995552;28;20234;-71
2023/07/27 09:34:01;;;;;;;1.20;1.20;;;;;;;;;;4995407;28;20574;-72
2023/07/27 09:36:29;;;;;;;1.30;1.20;;;;;;;;;;4995256;28;20209;-72
2023/07/27 09:38:56;;;;;;;2.17;1.27;;;;;;;;;;4995089;28;20709;-72
2023/07/27 09:41:24;;;;;;;1.20;1.20;;;;;;;;;;4995310;28;20625;-72
2023/07/27 09:43:53;;;;;;;1.20;1.20;;;;;;;;;;4995754;28;20260;-72
2023/07/27 09:46:23;;;;;;;0.93;0.93;;;;;;;;;;4995406;28;20209;-72
2023/07/27 09:48:51;;;;;;;1.38;1.27;;;;;;;;;;4994782;28;20549;-72
2023/07/27 09:51:20;;;;;;;1.10;1.10;;;;;;;;;;4995245;28;20209;-72
2023/07/27 09:53:48;;;;;;;0.93;0.93;;;;;;;;;;4995203;28;20203;-72
2023/07/27 09:56:16;;;;;;;2.80;1.38;;;;;;;;;;4995219;28;20609;-72
2023/07/27 09:58:45;;;;;;;1.13;1.13;;;;;;;;;;4994710;28;20737;-73
2023/07/27 10:01:12;;;;;;;1.30;1.30;;;;;;;;;;4995070;28;20209;-73
2023/07/27 10:03:39;;;;;;;1.25;1.25;;;;;;;;;;4995343;28;20221;-72
2023/07/27 10:06:07;;;;;;;1.08;1.08;;;;;;;;;;4994982;28;20206;-72
2023/07/27 10:08:36;;;;;;;1.10;1.10;;;;;;;;;;4994089;28;20229;-72
2023/07/27 10:11:03;;;;;;;1.13;1.13;;;;;;;;;;4994792;28;20209;-73
2023/07/27 10:13:37;;;;;;;1.38;1.33;;;;;;;;;;4994825;28;20241;-73
2023/07/27 10:16:07;;;;;;;1.70;1.60;;;;;;;;;;4994802;28;20218;-73
2023/07/27 10:18:39;;;;;;;1.00;1.00;;;;;;;;;;4994676;28;20571;-72
2023/07/27 10:21:26;;;;;;;1.25;1.25;;;;;;;;;;4994396;28;20639;-72
2023/07/27 10:23:58;;;;;;;1.20;1.20;;;;;;;;;;4994260;28;20701;-72
2023/07/27 10:26:43;;;;;;;1.23;1.20;;;;;;;;;;4994625;28;20202;-73
2023/07/27 10:29:14;;;;;;;1.23;1.23;;;;;;;;;;4988040;28;20222;-72
2023/07/27 10:31:43;;;;;;;1.33;1.33;;;;;;;;;;4994654;28;20253;-73
2023/07/27 10:34:14;;;;;;;1.23;1.23;;;;;;;;;;4994556;28;20202;-72
2023/07/27 10:36:56;;;;;;;1.50;1.42;;;;;;;;;;4994586;28;20194;-72
2023/07/27 10:39:32;;;;;;;1.50;1.40;;;;;;;;;;4994793;28;20186;-72
2023/07/27 10:42:03;;;;;;;1.90;1.55;;;;;;;;;;4994207;28;20634;-73
2023/07/27 10:44:30;;;;;;;1.63;1.52;;;;;;;;;;4994316;28;20230;-73
2023/07/27 10:46:59;;;;;;;1.40;1.40;;;;;;;;;;4994321;28;20209;-73
2023/07/27 10:49:26;;;;;;;1.40;1.40;;;;;;;;;;4994889;28;20229;-73
2023/07/27 10:51:53;;;;;;;1.27;1.27;;;;;;;;;;4994662;28;20230;-73
2023/07/27 10:54:20;;;;;;;1.30;1.30;;;;;;;;;;4994007;28;20202;-73
2023/07/27 10:56:49;;;;;;;1.90;1.80;;;;;;;;;;4994352;28;20198;-73
2023/07/27 10:59:16;;;;;;;1.48;1.48;;;;;;;;;;4994071;28;20257;-73
2023/07/27 11:01:43;;;;;;;1.55;1.55;;;;;;;;;;4994434;28;20202;-74
2023/07/27 11:04:12;;;;;;;4.30;1.50;;;;;;;;;;4994163;28;20224;-73
2023/07/27 11:06:42;;;;;;;1.50;1.45;;;;;;;;;;4994010;28;20728;-73
2023/07/27 11:09:13;;;;;;;1.30;1.30;;;;;;;;;;4993819;28;20256;-73
2023/07/27 11:11:40;;;;;;;2.10;2.00;;;;;;;;;;4994269;28;20206;-72
2023/07/27 11:14:10;;;;;;;1.50;1.40;;;;;;;;;;4994227;28;20209;-71
2023/07/27 11:16:37;;;;;;;1.23;1.23;;;;;;;;;;4994025;28;20206;-72
2023/07/27 11:19:06;;;;;;;1.42;1.40;;;;;;;;;;4994277;28;20249;-73
2023/07/27 11:21:33;;;;;;;1.80;1.77;;;;;;;;;;4998127;28;20213;-73
2023/07/27 11:24:02;;;;;;;1.40;1.40;;;;;;;;;;4997716;28;20693;-73
2023/07/27 11:26:30;;;;;;;1.60;1.50;;;;;;;;;;4998107;28;20267;-73
2023/07/27 11:28:57;;;;;;;1.48;1.48;;;;;;;;;;4997903;28;20221;-73
2023/07/27 11:31:25;;;;;;;1.17;1.17;;;;;;;;;;4997754;28;20553;-73
2023/07/27 11:33:57;;;;;;;1.20;1.20;;;;;;;;;;4997993;28;20616;-73
2023/07/27 11:36:27;;;;;;;0.93;0.93;;;;;;;;;;4997857;28;20186;-73
2023/07/27 11:38:54;;;;;;;0.98;0.98;;;;;;;;;;4997820;28;20714;-73
2023/07/27 11:41:21;;;;;;;1.10;1.10;;;;;;;;;;4997892;28;20562;-73
2023/07/27 11:43:51;;;;;;;1.10;1.10;;;;;;;;;;4997665;28;20202;-73
2023/07/27 11:46:20;;;;;;;1.48;1.02;;;;;;;;;;4997949;28;20190;-73
2023/07/27 11:48:49;;;;;;;0.82;0.82;;;;;;;;;;4998591;28;20264;-72
2023/07/27 11:51:17;;;;;;;0.90;0.90;;;;;;;;;;4997610;28;20565;-72
2023/07/27 11:53:45;;;;;;;1.08;1.08;;;;;;;;;;4997440;28;20217;-72
2023/07/27 11:56:12;;;;;;;1.38;1.30;;;;;;;;;;4997320;28;20229;-72
2023/07/27 11:58:39;;;;;;;1.00;1.00;;;;;;;;;;4997114;28;20261;-72
2023/07/27 12:01:07;;;;;;;1.00;1.00;;;;;;;;;;4997330;28;20202;-72
2023/07/27 12:03:34;;;;;;;1.10;1.10;;;;;;;;;;4997713;28;20198;-73
2023/07/27 12:06:04;;;;;;;1.35;1.25;;;;;;;;;;4997074;28;20567;-73
2023/07/27 12:08:31;;;;;;;1.10;1.10;;;;;;;;;;4997808;28;20277;-72
2023/07/27 12:11:00;;;;;;;1.40;1.27;;;;;;;;;;4997194;28;20202;-74
2023/07/27 12:13:27;;;;;;;1.00;0.90;;;;;;;;;;4997269;28;20534;-72
2023/07/27 12:15:58;;;;;;;0.80;0.80;;;;;;;;;;4997005;28;20702;-73
2023/07/27 12:18:27;;;;;;;0.90;0.90;;;;;;;;;;4996897;28;20226;-72
2023/07/27 12:20:55;;;;;;;1.20;1.20;;;;;;;;;;4996798;28;20234;-73
2023/07/27 12:23:23;;;;;;;0.90;0.90;;;;;;;;;;4996928;28;20213;-73
2023/07/27 12:25:51;;;;;;;0.90;0.90;;;;;;;;;;4997498;28;20222;-73
2023/07/27 12:28:18;;;;;;;1.00;1.00;;;;;;;;;;4997215;28;20233;-72
2023/07/27 12:30:45;;;;;;;0.80;0.80;;;;;;;;;;4996074;28;20569;-73
2023/07/27 12:33:12;;;;;;;0.95;0.73;;;25.40;99.90;;;;;;4996539;28;20214;-73
2023/07/27 12:35:39;;;;;;;1.27;1.17;;;25.40;99.90;;;;;;4996508;28;20633;-73
2023/07/27 12:38:06;;;;;;;1.35;1.10;;;25.40;99.90;;;;;;4996586;28;20222;-73
2023/07/27 12:40:35;;;;;;;0.98;0.98;;;;;;;;;;4996280;28;20206;-73
2023/07/27 12:43:02;;;;;;;1.05;1.05;;;;;;;;;;4996583;28;20198;-74
2023/07/27 12:45:29;;;;;;;1.10;1.10;;;;;;;;;;4996383;28;20225;-74
2023/07/27 12:47:56;;;;;;;1.55;1.45;;;;;;;;;;4996087;28;20229;-74
2023/07/27 12:50:23;;;;;;;0.85;0.85;;;;;;;;;;4996412;28;20202;-74
2023/07/27 12:52:50;;;;;;;0.85;0.85;;;;;;;;;;4996427;28;20209;-73
2023/07/27 12:55:17;;;;;;;1.10;1.10;;;;;;;;;;4996492;28;20569;-74
2023/07/27 12:57:46;;;;;;;1.10;1.10;;;;;;;;;;4996289;28;20253;-73
2023/07/27 13:00:16;;;;;;;0.82;0.82;;;;;;;;;;4995885;28;20696;-72
2023/07/27 13:02:43;;;;;;;0.90;0.90;;;;;;;;;;4996705;28;20246;-74
2023/07/27 13:05:12;;;;;;;1.05;1.05;;;;;;;;;;4996045;28;20226;-74
2023/07/27 13:07:40;;;;;;;0.88;0.88;;;;;;;;;;4995707;28;20767;-73
2023/07/27 13:10:08;;;;;;;1.60;1.50;;;;;;;;;;4996078;28;20226;-74
2023/07/27 13:12:35;;;;;;;1.42;1.08;;;;;;;;;;4995958;28;20198;-74
2023/07/27 13:15:03;;;;;;;1.20;1.20;;;;;;;;;;4995949;28;20203;-74
2023/07/27 13:17:30;;;;;;;1.25;1.25;;;;;;;;;;4995512;28;20705;-73
2023/07/27 13:19:58;;;;;;;1.20;1.20;;;;;;;;;;4996109;28;20210;-74
2023/07/27 13:22:25;;;;;;;1.00;1.00;;;;;;;;;;4996365;28;20297;-74
2023/07/27 13:24:53;;;;;;;0.90;0.90;;;;;;;;;;4995870;28;20764;-74
2023/07/27 13:27:20;;;;;;;1.25;1.25;;;;;;;;;;4995900;28;20713;-74
2023/07/27 13:29:47;;;;;;;1.70;1.13;;;;;;;;;;4995622;28;20673;-73
2023/07/27 13:32:15;;;;;;;1.40;1.35;;;;;;;;;;4995707;28;20206;-73
2023/07/27 13:34:42;;;;;;;1.35;1.30;;;;;;;;;;4995501;28;20248;-73
2023/07/27 13:37:09;;;;;;;1.00;1.00;;;;;;;;;;4995409;28;20214;-70
2023/07/27 13:39:38;;;;;;;1.40;1.40;;;;;;;;;;4995398;28;20202;-70
2023/07/27 13:42:05;;;;;;;1.13;1.13;;;;;;;;;;4995329;28;20245;-70
2023/07/27 13:44:32;;;;;;;1.10;1.10;;;;;;;;;;4995130;28;20538;-70
2023/07/27 13:46:59;;;;;;;1.30;1.20;;;;;;;;;;4995201;28;20202;-70
2023/07/27 13:49:27;;;;;;;1.70;1.30;;;;;;;;;;4995632;28;20229;-69
2023/07/27 13:51:55;;;;;;;1.08;1.08;;;;;;;;;;4995063;28;20677;-70
2023/07/27 13:54:22;;;;;;;1.55;1.55;;;;;;;;;;4995039;28;20237;-71
2023/07/27 13:56:49;;;;;;;1.27;1.27;;;;;;;;;;4995083;28;20209;-70
2023/07/27 13:59:17;;;;;;;1.38;1.27;;;;;;;;;;4994799;28;20265;-71
2023/07/27 14:01:44;;;;;;;1.52;1.42;;;25.40;99.90;;;;;;4995297;28;20206;-71
2023/07/27 14:04:11;;;;;;;1.80;1.35;;;25.60;99.90;;;;;;4995030;28;20569;-71
2023/07/27 14:06:39;;;;;;;1.13;1.13;;;25.60;99.90;;;;;;4995181;28;20226;-71
2023/07/27 14:09:06;;;;;;;1.40;1.30;;;25.50;99.90;;;;;;4995202;28;20218;-71
2023/07/27 14:11:34;;;;;;;1.33;1.30;;;25.50;99.90;;;;;;4994799;28;20234;-71
2023/07/27 14:14:01;;;;;;;1.23;1.23;;;25.40;99.90;;;;;;4994922;28;20241;-71
2023/07/27 14:16:28;;;;;;;1.38;1.38;;;25.50;99.90;;;;;;4995171;28;20206;-71
2023/07/27 14:18:54;;;;;;;1.30;1.30;;;25.50;99.90;;;;;;4994641;28;20230;-71
2023/07/27 14:21:21;;;;;;;1.92;1.83;;;;;;;;;;4994746;28;20206;-71
2023/07/27 14:23:50;;;;;;;1.42;1.35;;;;;;;;;;4994958;28;20202;-71
2023/07/27 14:26:17;;;;;;;1.63;1.63;;;;;;;;;;4994768;28;20217;-71
2023/07/27 14:28:44;;;;;;;1.20;1.20;;;;;;;;;;4994590;28;20226;-71
2023/07/27 14:31:11;;;;;;;1.50;1.50;;;;;;;;;;4994649;28;20198;-71
2023/07/27 14:33:38;;;;;;;1.10;1.10;;;;;;;;;;4994384;28;20696;-71
2023/07/27 14:36:05;;;;;;;1.20;1.20;;;;;;;;;;4994695;28;20252;-72
2023/07/27 14:38:32;;;;;;;1.58;1.50;;;;;;;;;;4994649;28;20225;-72
2023/07/27 14:41:01;;;;;;;1.48;1.48;;;;;;;;;;4994695;28;20202;-72
2023/07/27 14:43:28;;;;;;;1.85;1.40;;;;;;;;;;4994892;28;20209;-72